Topeka, KS (66611)

02:53 PM CDT die 23o October, anno 2014 (GMT -0500)
South Central Topeka | Change Station
CLOSE
Current Station
Personal Weather Stations
Location: Topeka, KS
Elevation: 946 ft
Nearby Weather Stations

Elev 946 ft 39.03 °N, 95.71 °W | Updated 3 seconds ago

Aequaliter Nubila
Aequaliter Nubila
70.9 °F
Feels Like 72 °F
N
0.5
Ventus Variabilis Ventus from Magis Auster quam Zephyrus
Gusts 2.3 mph

Hodie
High -- | Low -- °F
--% Chance of Precip.
Yesterday
High -- | Low -- °F
Precip. -- in
7:40 AM 6:33 PM
Waning Crescent, 0% visible
Pressio 30.06 in
Visibilitas 10.0 milia passuum
Clouds Aequaliter Nubila 1900 ft
Index Caloris 72 °F
Frigus in quo Ros apparet 64 °F
Umor 78%
Rainfall 1.40 in
Snow Depth Not available.
UV 2 out of 12
Pollen .90 out of 12
Air Quality Not available.
Flu Activity No Activity
METAR KFOE 231853Z 23006KT 10SM OVC019 19/16 A3007 RMK AO2 SLP177 T01940161

More Conditions Fewer Conditions

Pressio 30.06 in
Visibilitas 10.0 milia passuum
Clouds Aequaliter Nubila 1900 ft
Index Caloris 72 °F
Frigus in quo Ros apparet 64 °F
Umor 78%
Rainfall 1.40 in
Snow Depth Not available.
UV 2 out of 12
Pollen .90 out of 12
Air Quality Not available.
Flu Activity No Activity
METAR KFOE 231853Z 23006KT 10SM OVC019 19/16 A3007 RMK AO2 SLP177 T01940161

More Conditions Fewer Conditions

10-Day Weather Forecast

Almanac

Astronomy

Oct. 23, 2014 Rise Set
Actual Time 7:40 AM CDT 6:33 PM CDT
Civil Twilight 7:13 AM CDT 7:00 PM CDT
Nautical Twilight 6:42 AM CDT 7:31 PM CDT
Astronomical Twilight 6:11 AM CDT 8:02 PM CDT
Moon 7:21 AM CDT 6:35 PM CDT
Length Of Visible Light 11h 46m
Length of Day
10h 52m
Tomorrow will be 2m 23s shorter.
Waning Crescent, 0% of the Moon is Illuminated
Hodie
Waning Crescent
Oct 23
New
Oct 30
First Quarter
Nov 6
Full
Nov 14
Last Quarter

Today's Extremes

State Highs State Lows

Community

WunderPhotos

Upload Photos

1,764,350 photos uploaded!

WunderBlogs® & News

By Dr. Jeff Masters
Director of Meteorology, Weather Underground
By Kari Strenfel
Meteorologist, Weather Underground
By Christopher C. Burt
Weather Historian, Weather Underground
October 23, 2014
October 23, 2014
October 23, 2014

Nearby

Snow Depth

Station Depth Elevation
No new snow has been reported.

Earthquake Activity

City Distance Mag. Time & Date
No recent earthquake activity has been reported nearby.
Minimum magnitude displayed is 2.5.

Coastal Water Temperatures

Locus Calor
No Stations Reporting

Nearby Weather Stations